Time;durP1;ratioP1;P1;durP2;ratioP2;P2;SDS_P1;SDS_P2;PMS_P1;PMS_P2;Temp;Humidity;BMP_temperature;BMP_pressure;BME280_temperature;BME280_humidity;BME280_pressure;Samples;Min_cycle;Max_cycle;Signal;HPM_P1;HPM_P2
2022/12/04 00:00:55;;;;;;;57.60;29.42;;;;;;;6.64;100.00;100606.69;5033392;28;20221;-66
2022/12/04 00:03:20;;;;;;;62.90;29.90;;;;;;;6.61;100.00;100591.38;5015969;28;20481;-66
2022/12/04 00:05:46;;;;;;;58.83;30.08;;;;;;;6.52;100.00;100604.19;5033295;28;20459;-65
2022/12/04 00:08:11;;;;;;;58.42;30.92;;;;;;;6.51;100.00;100603.34;5033408;28;20393;-65
2022/12/04 00:10:42;;;;;;;69.25;32.00;;;;;;;6.51;100.00;100602.53;5033207;28;20080;-65
2022/12/04 00:13:07;;;;;;;;;;;;;;;6.50;100.00;100609.19;5031352;28;20083;-65
2022/12/04 00:15:32;;;;;;;63.75;31.23;;;;;;;6.54;100.00;100624.19;5015394;28;19909;-65
2022/12/04 00:17:58;;;;;;;66.25;32.42;;;;;;;6.39;100.00;100609.19;5033174;28;20048;-65
2022/12/04 00:20:23;;;;;;;65.88;33.22;;;;;;;6.59;100.00;100608.34;5033076;28;20034;-64
2022/12/04 00:22:49;;;;;;;65.22;33.65;;;;;;;6.57;100.00;100612.50;5032433;28;20028;-65
2022/12/04 00:25:14;;;;;;;71.88;33.33;;;;;;;6.49;100.00;100608.34;5032861;28;20083;-65
2022/12/04 00:27:40;;;;;;;70.22;35.28;;;;;;;6.43;100.00;100618.63;5031861;28;20025;-66
2022/12/04 00:30:06;;;;;;;74.07;36.83;;;;;;;6.44;100.00;100608.38;5031500;28;20250;-66
2022/12/04 00:32:32;;;;;;;71.47;32.53;;;;;;;6.51;100.00;100606.13;5032886;28;20037;-65
2022/12/04 00:34:57;;;;;;;78.93;36.17;;;;;;;6.40;100.00;100607.25;5032619;28;20377;-65
2022/12/04 00:37:22;;;;;;;71.45;34.08;;;;;;;6.40;100.00;100612.81;5015062;28;20124;-65
2022/12/04 00:39:48;;;;;;;74.60;34.45;;;;;;;6.54;100.00;100613.06;5032628;28;20025;-65
2022/12/04 00:42:13;;;;;;;75.07;36.67;;;;;;;6.45;100.00;100619.19;5030145;28;20041;-65
2022/12/04 00:44:39;;;;;;;84.07;36.63;;;;;;;6.41;100.00;100608.94;5032515;28;20017;-65
2022/12/04 00:47:04;;;;;;;81.18;31.52;;;;;;;6.32;100.00;100623.38;5014784;28;20049;-65
2022/12/04 00:49:30;;;;;;;74.75;32.92;;;;;;;6.39;100.00;100606.41;5014686;28;20048;-65
2022/12/04 00:51:55;;;;;;;79.28;32.38;;;;;;;6.51;100.00;100611.66;5032466;28;20048;-65
2022/12/04 00:54:21;;;;;;;78.47;35.00;;;;;;;6.48;100.00;100617.81;5032228;28;20030;-65
2022/12/04 00:56:46;;;;;;;76.43;32.20;;;;;;;6.44;100.00;100616.69;5031098;28;20032;-65
2022/12/04 00:59:12;;;;;;;77.75;34.25;;;;;;;6.43;100.00;100618.63;5010291;28;20056;-66
2022/12/04 01:01:37;;;;;;;75.13;33.30;;;;;;;6.43;100.00;100604.75;5021182;28;20036;-65
2022/12/04 01:04:03;;;;;;;78.03;34.53;;;;;;;6.51;100.00;100606.13;5032250;28;20117;-65
2022/12/04 01:06:32;;;;;;;70.57;32.53;;;;;;;6.51;100.00;100610.84;5014383;28;20124;-65
2022/12/04 01:08:59;;;;;;;74.53;32.72;;;;;;;6.43;100.00;100617.81;5031120;28;20022;-66
2022/12/04 01:11:26;;;;;;;71.85;33.08;;;;;;;6.57;100.00;100613.34;5014173;28;20021;-65
2022/12/04 01:13:52;;;;;;;79.07;32.30;;;;;;;6.40;100.00;100607.25;5031909;28;20500;-65
2022/12/04 01:16:19;;;;;;;70.55;31.10;;;;;;;6.36;100.00;100611.69;5031990;28;20209;-66
2022/12/04 01:18:45;;;;;;;78.07;32.70;;;;;;;6.31;100.00;100613.38;5031913;28;20516;-65
2022/12/04 01:21:11;;;;;;;86.65;34.60;;;;;;;6.31;100.00;100610.59;5031794;28;20021;-64
2022/12/04 01:23:36;;;;;;;82.93;32.67;;;;;;;6.34;100.00;100608.38;5031080;28;20116;-65
2022/12/04 01:26:02;;;;;;;84.50;33.17;;;;;;;6.32;100.00;100615.03;5031812;28;20021;-66
2022/12/04 01:28:27;;;;;;;85.38;32.70;;;;;;;6.40;100.00;100610.88;5029285;28;20056;-65
2022/12/04 01:30:58;;;;;;;73.65;34.40;;;;;;;6.38;100.00;100610.31;5013946;28;20037;-65
2022/12/04 01:33:24;;;;;;;79.68;30.63;;;;;;;6.28;100.00;100615.88;5030730;28;20025;-65
2022/12/04 01:35:57;;;;;;;81.50;31.20;;;;;;;6.34;100.00;100612.00;5031601;28;20078;-65
2022/12/04 01:38:23;;;;;;;77.90;31.90;;;;;;;6.31;100.00;100620.88;5031701;28;20100;-65
2022/12/04 01:40:49;;;;;;;79.85;31.13;;;;;;;6.36;100.00;100612.53;5013983;28;20021;-65
2022/12/04 01:43:16;;;;;;;87.30;33.15;;;;;;;6.41;100.00;100614.50;5012655;28;20120;-65
2022/12/04 01:46:00;;;;;;;87.00;33.92;;;;;;;6.35;100.00;100610.03;5030386;28;20044;-65
2022/12/04 01:48:39;;;;;;;79.45;31.27;;;;;;;6.29;100.00;100610.03;5013558;28;20056;-64
2022/12/04 01:51:27;;;;;;;85.93;33.03;;;;;;;6.44;100.00;100614.75;5031474;28;20029;-65
2022/12/04 01:54:07;;;;;;;98.60;35.40;;;;;;;6.38;100.00;100609.47;5013514;28;20119;-66
2022/12/04 01:56:57;;;;;;;90.27;33.10;;;;;;;6.39;100.00;100609.19;5029348;28;20025;-64
2022/12/04 01:59:25;;;;;;;;;;;;;;;6.38;100.00;100603.91;5032281;28;20985;-65
2022/12/04 02:02:08;;;;;;;89.88;32.78;;;;;;;6.30;100.00;100605.31;5031288;28;19909;-66
2022/12/04 02:04:35;;;;;;;95.47;34.33;;;;;;;6.22;100.00;100600.31;5031284;28;20029;-65
2022/12/04 02:07:01;;;;;;;93.57;30.95;;;;;;;6.26;100.00;100602.25;5031169;28;20025;-64
2022/12/04 02:09:28;;;;;;;84.82;32.05;;;;;;;6.30;100.00;100600.59;5031314;28;20026;-65
2022/12/04 02:12:31;;;;;;;84.75;29.58;;;;;;;6.27;100.00;100598.34;5030226;28;20104;-65
2022/12/04 02:15:00;;;;;;;78.28;29.17;;;;;;;6.17;100.00;100601.97;5013377;28;20029;-65
2022/12/04 02:17:41;;;;;;;86.15;29.80;;;;;;;6.11;100.00;100594.75;5031108;28;20036;-65
2022/12/04 02:20:40;;;;;;;78.43;30.67;;;;;;;6.15;100.00;100601.44;5031109;28;20032;-65
2022/12/04 02:23:31;;;;;;;88.50;31.42;;;;;;;6.17;100.00;100607.53;5031086;28;20061;-65
2022/12/04 02:26:24;;;;;;;79.28;31.10;;;;;;;6.24;100.00;100610.03;4993625;28;20172;-65
2022/12/04 02:29:07;;;;;;;89.90;29.42;;;;;;;6.18;100.00;100608.38;5011423;28;20076;-65
2022/12/04 02:31:39;;;;;;;82.22;28.23;;;;;;;6.18;100.00;100605.59;5030950;28;20033;-65
2022/12/04 02:34:22;;;;;;;83.72;29.58;;;;;;;6.11;100.00;100597.53;5030962;28;20026;-66
2022/12/04 02:37:28;;;;;;;87.13;29.48;;;;;;;6.08;100.00;100600.03;5030907;28;20092;-65
2022/12/04 02:40:07;;;;;;;93.72;29.23;;;;;;;6.11;100.00;100605.03;4914854;29;20031;-65
2022/12/04 02:42:48;;;;;;;91.53;30.45;;;;;;;6.10;100.00;100604.22;5022586;28;20443;-64
2022/12/04 02:45:19;;;;;;;70.10;28.05;;;;;;;6.08;100.00;100600.03;5015192;28;20481;-66
2022/12/04 02:47:45;;;;;;;89.13;29.77;;;;;;;6.13;100.00;100608.34;5030087;28;20138;-64
2022/12/04 02:50:17;;;;;;;87.45;30.95;;;;;;;6.05;100.00;100606.97;5034823;28;20100;-65
2022/12/04 02:53:00;;;;;;;80.45;31.10;;;;;;;6.02;100.00;100604.75;5033447;28;20477;-65
2022/12/04 02:55:34;;;;;;;80.30;29.33;;;;;;;6.03;100.00;100598.09;5034624;28;20028;-65
2022/12/04 02:58:06;;;;;;;84.13;29.27;;;;;;;6.13;100.00;100600.88;5033479;28;20546;-65
2022/12/04 03:00:34;;;;;;;82.10;28.05;;;;;;;6.09;100.00;100604.47;5031137;28;20556;-65
2022/12/04 03:03:06;;;;;;;86.35;29.67;;;;;;;6.08;100.00;100602.81;5034379;28;20052;-65
2022/12/04 03:05:34;;;;;;;86.22;31.08;;;;;;;6.15;100.00;100601.44;5034526;28;20103;-64
2022/12/04 03:08:07;;;;;;;72.07;27.27;;;;;;;6.09;100.00;100596.97;5034195;28;20032;-65
2022/12/04 03:10:38;;;;;;;75.38;28.27;;;;;;;6.18;100.00;100591.72;5034319;28;20088;-65
2022/12/04 03:13:10;;;;;;;80.72;28.13;;;;;;;6.07;100.00;100593.63;5015088;28;20029;-66
2022/12/04 03:16:13;;;;;;;85.57;30.08;;;;;;;6.03;100.00;100598.94;5014150;28;20034;-64
2022/12/04 03:18:50;;;;;;;67.18;25.25;;;;;;;6.06;100.00;100602.25;4974234;28;20030;-65
2022/12/04 03:21:21;;;;;;;93.80;28.38;;;;;;;6.13;100.00;100595.31;5014363;28;20619;-65
2022/12/04 03:23:54;;;;;;;80.32;26.42;;;;;;;6.09;100.00;100580.28;5014417;28;20025;-66
2022/12/04 03:26:26;;;;;;;86.55;28.30;;;;;;;6.03;100.00;100589.75;5014402;28;20097;-66
2022/12/04 03:29:05;;;;;;;79.13;27.50;;;;;;;6.00;100.00;100596.66;5032374;28;20029;-65
2022/12/04 03:31:41;;;;;;;81.23;27.40;;;;;;;6.09;100.00;100596.16;5031308;28;20555;-65
2022/12/04 03:34:10;;;;;;;78.25;30.13;;;;;;;6.11;100.00;100592.00;5032420;28;20036;-65
2022/12/04 03:36:38;;;;;;;76.35;27.05;;;;;;;6.19;100.00;100598.94;5033629;28;20029;-64
2022/12/04 03:39:53;;;;;;;91.72;29.73;;;;;;;6.15;100.00;100595.88;5033883;28;20029;-64
2022/12/04 03:42:26;;;;;;;76.20;28.55;;;;;;;6.17;100.00;100601.16;5024808;28;20037;-65
2022/12/04 03:45:13;;;;;;;71.63;27.40;;;;;;;6.15;100.00;100595.03;5033745;28;20021;-65
2022/12/04 03:47:50;;;;;;;76.38;28.92;;;;;;;6.11;100.00;100599.47;5033463;28;20052;-65
2022/12/04 03:50:27;;;;;;;81.32;27.92;;;;;;;6.04;100.00;100595.03;5033740;28;20069;-64
2022/12/04 03:53:03;;;;;;;77.60;29.00;;;;;;;6.05;100.00;100593.09;5015836;28;20140;-64
2022/12/04 03:55:40;;;;;;;70.75;29.23;;;;;;;6.00;100.00;100598.63;5033139;28;20048;-65
2022/12/04 03:58:12;;;;;;;75.13;28.17;;;;;;;6.03;100.00;100604.50;5033028;28;20025;-65
2022/12/04 04:00:41;;;;;;;77.80;29.83;;;;;;;6.00;100.00;100609.72;5033516;28;20026;-64
2022/12/04 04:03:15;;;;;;;74.80;29.67;;;;;;;6.00;100.00;100612.50;5032618;28;20481;-65
2022/12/04 04:05:45;;;;;;;83.78;28.75;;;;;;;6.00;100.00;100612.50;5033133;28;20036;-64
2022/12/04 04:08:28;;;;;;;73.75;28.88;;;;;;;6.06;100.00;100616.16;5015435;28;20459;-65
2022/12/04 04:11:04;;;;;;;92.38;31.92;;;;;;;5.97;100.00;100611.09;5031798;28;20034;-65
2022/12/04 04:24:58;;;;;;;98.72;32.65;;;;;;;5.94;100.00;100614.44;5031864;28;20044;-65
2022/12/04 04:27:23;;;;;;;91.65;32.40;;;;;;;6.00;100.00;100612.50;5033043;28;20104;-65
2022/12/04 04:29:50;;;;;;;89.80;33.70;;;;;;;5.97;100.00;100611.09;5031701;28;20028;-65
2022/12/04 04:32:21;;;;;;;98.53;32.75;;;;;;;5.98;100.00;100618.31;5032859;28;20452;-65
2022/12/04 04:35:14;;;;;;;98.30;35.47;;;;;;;5.92;100.00;100622.22;5032736;28;20038;-64
2022/12/04 04:38:16;;;;;;;94.85;34.55;;;;;;;5.94;100.00;100616.38;5031679;28;20037;-65
2022/12/04 04:41:03;;;;;;;103.45;32.88;;;;;;;5.87;100.00;100613.88;5032705;28;20037;-65
2022/12/04 04:43:38;;;;;;;95.50;33.38;;;;;;;5.83;100.00;100621.91;5014808;28;20022;-65
2022/12/04 04:46:10;;;;;;;96.40;31.67;;;;;;;5.97;100.00;100615.81;5032664;28;20032;-64
2022/12/04 04:48:47;;;;;;;99.80;34.10;;;;;;;5.96;100.00;100625.25;5032362;28;20049;-64
2022/12/04 04:51:13;;;;;;;97.68;32.13;;;;;;;5.93;100.00;100631.38;5023578;28;20385;-64
2022/12/04 04:53:45;;;;;;;119.18;34.97;;;;;;;5.93;100.00;100637.78;5023294;28;20401;-65
2022/12/04 04:56:12;;;;;;;114.82;34.58;;;;;;;5.91;100.00;100628.84;5012512;28;20081;-65
2022/12/04 04:58:37;;;;;;;106.28;34.58;;;;;;;5.89;100.00;100628.31;5025368;28;20211;-65
2022/12/04 05:01:06;;;;;;;104.20;35.88;;;;;;;5.95;100.00;100634.69;5014615;28;20560;-65
2022/12/04 05:03:31;;;;;;;92.82;32.33;;;;;;;5.94;100.00;100638.59;5032299;28;20444;-64
2022/12/04 05:05:57;;;;;;;112.60;34.53;;;;;;;5.88;100.00;100646.94;5031805;28;20117;-65
2022/12/04 05:08:23;;;;;;;93.60;33.38;;;;;;;5.84;100.00;100639.41;5032600;28;20029;-72
2022/12/04 05:10:49;;;;;;;94.20;34.65;;;;;;;5.85;100.00;100629.97;5032521;28;20052;-68
2022/12/04 05:13:15;;;;;;;99.82;35.03;;;;;;;5.93;100.00;100643.31;5014856;28;20111;-71
2022/12/04 05:15:41;;;;;;;92.32;32.95;;;;;;;5.92;100.00;100647.22;5014857;28;20635;-68
2022/12/04 05:18:07;;;;;;;92.22;30.23;;;;;;;5.89;100.00;100645.81;5032549;28;20037;-68
2022/12/04 05:20:36;;;;;;;108.47;37.00;;;;;;;5.90;100.00;100647.47;5031379;28;20033;-68
2022/12/04 05:23:02;;;;;;;99.78;31.85;;;;;;;5.98;100.00;100643.31;5032527;28;20396;-68
2022/12/04 05:25:27;;;;;;;99.88;31.42;;;;;;;5.97;100.00;100647.22;5032599;28;20033;-68
2022/12/04 05:27:53;;;;;;;108.15;33.92;;;;;;;5.83;100.00;100643.31;5032574;28;20029;-68
2022/12/04 05:30:18;;;;;;;103.57;32.88;;;;;;;5.88;100.00;100649.69;5014415;28;20440;-69
2022/12/04 05:32:43;;;;;;;108.50;35.10;;;;;;;5.79;100.00;100653.25;5032372;28;20400;-68
2022/12/04 05:35:09;;;;;;;98.82;33.33;;;;;;;5.81;100.00;100651.88;5028777;28;20033;-68
2022/12/04 05:37:36;;;;;;;102.85;34.33;;;;;;;5.76;100.00;100654.66;5031079;28;20030;-67
2022/12/04 05:40:06;;;;;;;94.05;34.05;;;;;;;5.78;100.00;100648.81;5019550;28;20026;-67
2022/12/04 05:42:31;;;;;;;99.43;32.80;;;;;;;5.88;100.00;100654.41;5012134;28;20096;-74
2022/12/04 05:44:57;;;;;;;91.10;33.42;;;;;;;5.87;100.00;100659.16;5012283;28;20472;-73
2022/12/04 05:47:22;;;;;;;89.70;32.75;;;;;;;5.88;100.00;100657.19;5014067;28;20046;-73
2022/12/04 05:49:48;;;;;;;91.78;33.00;;;;;;;5.81;100.00;100653.84;5014297;28;20080;-69
2022/12/04 05:52:13;;;;;;;98.50;35.55;;;;;;;5.84;100.00;100654.13;5031702;28;20030;-68
2022/12/04 05:54:39;;;;;;;98.78;34.80;;;;;;;5.96;100.00;100659.44;5013162;28;20029;-67
2022/12/04 05:57:05;;;;;;;90.47;34.60;;;;;;;5.84;100.00;100667.19;5031631;28;20026;-68
2022/12/04 05:59:30;;;;;;;83.93;32.50;;;;;;;5.83;100.00;100669.09;5013631;28;20413;-68
2022/12/04 06:01:56;;;;;;;89.57;33.65;;;;;;;5.84;100.00;100670.78;5030453;28;20456;-68
2022/12/04 06:04:21;;;;;;;104.53;33.63;;;;;;;5.96;100.00;100667.75;5013104;28;20025;-70
2022/12/04 06:06:46;;;;;;;84.10;32.72;;;;;;;5.75;100.00;100662.16;5028738;28;20036;-69
2022/12/04 06:09:12;;;;;;;90.13;31.90;;;;;;;5.76;100.00;100665.78;5028528;28;20033;-68
2022/12/04 06:11:39;;;;;;;87.80;30.60;;;;;;;5.72;100.00;100671.03;5028766;28;20395;-69
2022/12/04 06:14:09;;;;;;;101.22;34.15;;;;;;;5.68;100.00;100678.25;5028598;28;20029;-68
2022/12/04 06:16:37;;;;;;;82.68;32.85;;;;;;;5.73;100.00;100677.41;4997957;28;20186;-68
2022/12/04 06:19:10;;;;;;;83.38;33.95;;;;;;;5.72;100.00;100678.50;5016080;28;20029;-70
2022/12/04 06:21:38;;;;;;;82.57;33.00;;;;;;;5.67;100.00;100679.34;5015220;28;20037;-68
2022/12/04 06:24:05;;;;;;;82.63;30.90;;;;;;;5.76;100.00;100674.94;5033051;28;20036;-71
2022/12/04 06:26:31;;;;;;;85.25;33.50;;;;;;;5.64;100.00;100688.22;5035065;28;20381;-69
2022/12/04 06:28:58;;;;;;;76.95;31.20;;;;;;;5.70;100.00;100678.81;5017130;28;20045;-68
2022/12/04 06:31:25;;;;;;;75.78;31.73;;;;;;;5.62;100.00;100684.88;5017086;28;20148;-69
2022/12/04 06:33:52;;;;;;;71.13;30.73;;;;;;;5.69;100.00;100691.03;5017058;28;20462;-67
2022/12/04 06:36:22;;;;;;;80.63;29.85;;;;;;;5.64;100.00;100690.97;5015442;28;20416;-71
2022/12/04 06:38:49;;;;;;;90.68;41.30;;;;;;;5.74;100.00;100688.25;5035114;28;20044;-67
2022/12/04 06:41:17;;;;;;;84.07;38.10;;;;;;;5.64;100.00;100695.72;5033796;28;20627;-67
2022/12/04 06:43:43;;;;;;;70.13;29.10;;;;;;;5.68;100.00;100702.38;5034690;28;20032;-68
2022/12/04 06:46:11;;;;;;;70.53;27.20;;;;;;;5.58;100.00;100687.34;5034754;28;20025;-66
2022/12/04 06:48:37;;;;;;;66.22;29.77;;;;;;;5.66;100.00;100694.31;5034847;28;20492;-67
2022/12/04 06:51:09;;;;;;;76.70;32.17;;;;;;;5.73;100.00;100694.06;5032358;28;20029;-68
2022/12/04 06:53:35;;;;;;;68.28;30.10;;;;;;;5.75;100.00;100689.91;5009901;28;20033;-67
2022/12/04 06:56:04;;;;;;;67.30;30.10;;;;;;;5.69;100.00;100679.91;5020460;28;20029;-67
2022/12/04 06:58:29;;;;;;;66.47;28.27;;;;;;;5.64;100.00;100685.44;5036876;28;20098;-67
2022/12/04 07:00:56;;;;;;;61.28;26.23;;;;;;;5.75;100.00;100691.88;5054766;28;20025;-66
2022/12/04 07:03:22;;;;;;;65.95;28.08;;;;;;;5.68;100.00;100681.03;5048287;28;20033;-69
2022/12/04 07:05:48;;;;;;;67.43;31.85;;;;;;;5.78;100.00;100698.81;5030111;28;20160;-70
2022/12/04 07:08:14;;;;;;;65.57;29.65;;;;;;;5.82;100.00;100698.00;5031587;28;20045;-69
2022/12/04 07:10:40;;;;;;;61.97;28.17;;;;;;;5.83;100.00;100685.78;5030066;28;20499;-68
2022/12/04 07:13:05;;;;;;;69.35;31.90;;;;;;;5.85;100.00;100691.06;5034017;28;20415;-67
2022/12/04 07:15:33;;;;;;;57.58;28.65;;;;;;;5.86;100.00;100689.94;5014782;28;20030;-67
2022/12/04 07:17:59;;;;;;;53.53;27.67;;;;;;;5.88;100.00;100687.72;5015992;28;20029;-68
2022/12/04 07:20:24;;;;;;;61.38;30.45;;;;;;;6.00;100.00;100688.31;5014142;28;20513;-70
2022/12/04 07:22:50;;;;;;;58.85;28.35;;;;;;;5.93;100.00;100693.31;5016157;28;20037;-73
2022/12/04 07:25:16;;;;;;;59.33;27.30;;;;;;;5.99;100.00;100696.94;5031851;28;20018;-71
2022/12/04 07:27:42;;;;;;;56.33;27.08;;;;;;;5.93;100.00;100692.47;5028623;28;20571;-70
2022/12/04 07:30:09;;;;;;;64.30;27.27;;;;;;;5.96;100.00;100698.31;5010019;28;20025;-68
2022/12/04 07:32:34;;;;;;;58.13;27.98;;;;;;;5.89;100.00;100694.94;5029891;28;20033;-69
2022/12/04 07:35:00;;;;;;;50.88;26.23;;;;;;;6.02;100.00;100696.41;5019801;28;20033;-71
2022/12/04 07:37:25;;;;;;;60.40;26.35;;;;;;;5.96;100.00;100703.03;5028088;28;20559;-69
2022/12/04 07:39:51;;;;;;;54.40;25.85;;;;;;;5.82;100.00;100683.28;5025649;28;20022;-73
2022/12/04 07:42:17;;;;;;;52.95;24.23;;;;;;;5.85;100.00;100699.38;5032397;28;20025;-70
2022/12/04 07:44:43;;;;;;;61.45;28.40;;;;;;;5.89;100.00;100703.28;5009888;28;20025;-69
2022/12/04 07:47:08;;;;;;;55.03;26.92;;;;;;;5.99;100.00;100691.38;5026974;28;20064;-71
2022/12/04 07:49:34;;;;;;;58.85;28.65;;;;;;;5.93;100.00;100701.66;5032082;28;20416;-71
2022/12/04 07:51:59;;;;;;;54.83;28.08;;;;;;;5.83;100.00;100707.97;5032895;28;20501;-71
2022/12/04 07:54:25;;;;;;;48.10;24.17;;;;;;;5.74;100.00;100698.53;5032427;28;20021;-71
2022/12/04 07:56:50;;;;;;;61.17;27.92;;;;;;;5.95;100.00;100710.53;5033220;28;20025;-71
2022/12/04 07:59:16;;;;;;;58.78;29.38;;;;;;;6.08;100.00;100700.84;5030004;28;20465;-76
2022/12/04 08:01:41;;;;;;;58.25;27.65;;;;;;;6.03;100.00;100703.63;5013215;28;20025;-70
2022/12/04 08:04:09;;;;;;;54.60;26.17;;;;;;;5.96;100.00;100706.66;5013541;28;20026;-68
2022/12/04 08:06:34;;;;;;;52.33;24.48;;;;;;;5.93;100.00;100703.56;5024473;28;20049;-74
2022/12/04 08:09:00;;;;;;;50.88;26.50;;;;;;;5.96;100.00;100714.13;5020732;28;20057;-72
2022/12/04 08:11:27;;;;;;;58.65;25.83;;;;;;;6.01;100.00;100712.22;5031596;28;20092;-73
2022/12/04 08:14:00;;;;;;;50.85;25.95;;;;;;;6.02;100.00;100721.41;5014581;28;20105;-68
2022/12/04 08:16:27;;;;;;;57.03;29.80;;;;;;;6.05;100.00;100718.09;5027672;28;20524;-72
2022/12/04 08:18:54;;;;;;;54.50;26.42;;;;;;;6.16;100.00;100713.41;5012800;28;20062;-73
2022/12/04 08:21:22;;;;;;;52.28;28.80;;;;;;;6.24;100.00;100709.25;5023607;28;20030;-75
2022/12/04 08:23:50;;;;;;;42.75;24.33;;;;;;;6.28;100.00;100710.34;5001675;28;20025;-73
2022/12/04 08:26:16;;;;;;;48.83;25.23;;;;;;;6.22;100.00;100715.06;5003695;28;20578;-72
2022/12/04 08:28:42;;;;;;;49.33;24.58;;;;;;;6.19;100.00;100710.06;5009738;28;20485;-72
2022/12/04 08:31:12;;;;;;;45.97;23.40;;;;;;;6.17;100.00;100710.31;5011448;28;20037;-73
2022/12/04 08:33:39;;;;;;;53.17;27.48;;;;;;;6.15;100.00;100707.00;5030823;28;20112;-74
2022/12/04 08:36:06;;;;;;;59.58;28.50;;;;;;;6.23;100.00;100707.56;5010277;28;20054;-70
2022/12/04 08:38:32;;;;;;;41.90;23.35;;;;;;;6.18;100.00;100708.41;5013765;28;20021;-69
2022/12/04 08:41:02;;;;;;;54.83;28.05;;;;;;;6.20;100.00;100714.50;5029274;28;20029;-71
2022/12/04 08:43:28;;;;;;;54.60;27.85;;;;;;;6.25;100.00;100711.72;4994861;28;20153;-70
2022/12/04 08:46:01;;;;;;;53.58;26.30;;;;;;;6.22;100.00;100714.25;5013592;28;20116;-71
2022/12/04 08:48:27;;;;;;;52.03;26.27;;;;;;;6.30;100.00;100713.69;5006438;28;20049;-71
2022/12/04 08:50:53;;;;;;;53.10;26.83;;;;;;;6.29;100.00;100715.63;5030177;28;20447;-72
2022/12/04 08:53:19;;;;;;;57.92;28.95;;;;;;;6.20;100.00;100708.09;5027032;28;20459;-71
2022/12/04 08:55:44;;;;;;;49.80;25.83;;;;;;;6.17;100.00;100701.19;5035842;28;20034;-70
2022/12/04 08:58:10;;;;;;;58.35;27.95;;;;;;;6.28;100.00;100708.41;5020385;28;20056;-72
2022/12/04 09:00:36;;;;;;;53.42;25.23;;;;;;;6.15;100.00;100695.88;5013922;28;20033;-70
2022/12/04 09:03:04;;;;;;;56.47;27.02;;;;;;;6.11;100.00;100697.56;5028877;28;20108;-70
2022/12/04 09:05:29;;;;;;;51.75;26.48;;;;;;;6.05;100.00;100684.75;5025969;28;20045;-71
2022/12/04 09:07:55;;;;;;;52.28;25.77;;;;;;;6.09;100.00;100691.41;5007464;28;20524;-70
2022/12/04 09:10:21;;;;;;;57.72;26.70;;;;;;;6.13;100.00;100691.69;5010913;28;20516;-72
2022/12/04 09:12:47;;;;;;;58.53;26.77;;;;;;;6.02;100.00;100685.31;5028963;28;20049;-70
2022/12/04 09:15:12;;;;;;;55.53;25.15;;;;;;;6.09;100.00;100685.03;5000730;28;20032;-70
2022/12/04 09:17:38;;;;;;;69.07;28.33;;;;;;;6.09;100.00;100687.81;5030173;28;20069;-70
2022/12/04 09:20:05;;;;;;;62.33;28.90;;;;;;;6.14;100.00;100683.09;5011689;28;20128;-70
2022/12/04 09:22:35;;;;;;;63.92;30.08;;;;;;;6.12;100.00;100685.31;5026565;28;20412;-71
2022/12/04 09:25:01;;;;;;;59.67;28.25;;;;;;;6.02;100.00;100686.13;5028708;28;20032;-71
2022/12/04 09:27:26;;;;;;;60.20;26.50;;;;;;;6.16;100.00;100680.06;5028996;28;20030;-70
2022/12/04 09:29:52;;;;;;;55.38;25.38;;;;;;;6.09;100.00;100673.94;5010732;28;20029;-70
2022/12/04 09:32:18;;;;;;;59.50;27.40;;;;;;;6.15;100.00;100670.03;5026835;28;20042;-71
2022/12/04 09:34:45;;;;;;;56.67;26.77;;;;;;;6.14;100.00;100682.25;5029097;28;20022;-71
2022/12/04 09:37:10;;;;;;;65.63;28.70;;;;;;;6.06;100.00;100671.72;5026222;28;20033;-70
2022/12/04 09:39:36;;;;;;;60.15;27.67;;;;;;;6.18;100.00;100669.50;5027030;28;20033;-73
2022/12/04 09:42:24;;;;;;;60.63;29.38;;;;;;;6.31;100.00;100668.09;5026659;28;20029;-70
2022/12/04 09:45:02;;;;;;;57.05;26.90;;;;;;;6.22;100.00;100667.00;5027468;28;20480;-70
2022/12/04 09:47:36;;;;;;;59.80;27.70;;;;;;;6.19;100.00;100676.72;5008167;28;20049;-72
2022/12/04 09:50:15;;;;;;;58.40;28.00;;;;;;;6.11;100.00;100678.09;5013117;28;20028;-69
2022/12/04 09:52:56;;;;;;;58.50;28.58;;;;;;;6.11;100.00;100672.56;5010214;28;20045;-70
2022/12/04 09:55:27;;;;;;;53.58;26.75;;;;;;;6.13;100.00;100659.22;4992521;28;20045;-69
2022/12/04 09:57:56;;;;;;;62.70;29.33;;;;;;;6.06;100.00;100674.47;5018634;28;20036;-71
2022/12/04 10:00:22;;;;;;;52.03;26.13;;;;;;;5.97;100.00;100661.09;5001924;28;20462;-71
2022/12/04 10:02:53;;;;;;;46.92;24.98;;;;;;;6.07;100.00;100665.03;5030256;28;20071;-70
2022/12/04 10:05:45;;;;;;;62.60;29.02;;;;;;;6.23;100.00;100663.94;5029685;28;20528;-69
2022/12/04 10:08:34;;;;;;;55.47;27.02;;;;;;;6.14;100.00;100657.25;4978293;28;20119;-69
2022/12/04 10:11:16;;;;;;;59.00;27.05;;;;;;;6.11;100.00;100653.09;5026891;28;20029;-69
2022/12/04 10:13:59;;;;;;;54.72;27.70;;;;;;;6.08;100.00;100666.69;5028539;28;20037;-69
2022/12/04 10:16:43;;;;;;;54.65;24.83;;;;;;;6.15;100.00;100662.53;5029477;28;20544;-69
2022/12/04 10:19:46;;;;;;;72.22;33.63;;;;;;;6.12;100.00;100659.47;4994782;28;20025;-70
2022/12/04 10:22:34;;;;;;;63.10;29.70;;;;;;;6.19;100.00;100646.16;5015470;28;20041;-72
2022/12/04 10:25:09;;;;;;;57.53;27.98;;;;;;;6.10;100.00;100639.47;5007191;28;20029;-69
2022/12/04 10:27:52;;;;;;;61.80;27.77;;;;;;;6.11;100.00;100632.81;5022311;28;20450;-69
2022/12/04 10:30:22;;;;;;;61.40;28.73;;;;;;;6.09;100.00;100632.25;5009657;28;20049;-70
2022/12/04 10:33:03;;;;;;;59.28;26.60;;;;;;;6.03;100.00;100617.53;5008814;28;20148;-71
2022/12/04 10:35:34;;;;;;;52.92;25.85;;;;;;;5.91;100.00;100620.53;5011382;28;20025;-69
2022/12/04 10:38:05;;;;;;;62.35;28.42;;;;;;;5.92;100.00;100613.88;5026797;28;20087;-73
2022/12/04 10:40:36;;;;;;;53.63;24.35;;;;;;;5.99;100.00;100614.44;5027429;28;20041;-70
2022/12/04 10:43:21;;;;;;;50.83;26.38;;;;;;;6.08;100.00;100614.75;5019443;28;20033;-70
2022/12/04 10:45:47;;;;;;;54.22;27.67;;;;;;;6.04;100.00;100611.72;5020903;28;20030;-70
2022/12/04 10:48:25;;;;;;;59.42;27.48;;;;;;;5.95;100.00;100610.56;5014143;28;20084;-72
2022/12/04 10:50:50;;;;;;;62.05;28.15;;;;;;;6.07;100.00;100612.25;5009004;28;20041;-69
2022/12/04 10:53:26;;;;;;;61.63;28.00;;;;;;;6.01;100.00;100603.91;5026319;28;20033;-69
2022/12/04 10:55:52;;;;;;;60.38;26.42;;;;;;;6.06;100.00;100602.25;5027698;28;20469;-69
2022/12/04 10:58:19;;;;;;;71.28;29.23;;;;;;;5.84;100.00;100587.47;5027407;28;20091;-71
2022/12/04 11:01:03;;;;;;;59.67;25.67;;;;;;;5.92;100.00;100591.66;5001292;28;20037;-70
2022/12/04 11:03:30;;;;;;;55.70;25.80;;;;;;;5.93;100.00;100584.16;5019524;28;20060;-69
2022/12/04 11:05:59;;;;;;;65.43;26.60;;;;;;;5.95;100.00;100587.47;5022152;28;20485;-68
2022/12/04 11:08:32;;;;;;;58.42;25.05;;;;;;;5.94;100.00;100586.66;5014007;28;20053;-68
2022/12/04 11:11:04;;;;;;;52.80;25.98;;;;;;;5.97;100.00;100593.59;5023364;28;20041;-68
2022/12/04 11:13:30;;;;;;;49.90;27.40;;;;;;;6.08;100.00;100594.47;5032935;28;20034;-68
2022/12/04 11:15:57;;;;;;;52.72;28.23;;;;;;;6.06;100.00;100585.59;5033724;28;20431;-68
2022/12/04 11:18:24;;;;;;;63.55;31.63;;;;;;;6.18;100.00;100578.63;5033481;28;20392;-68
2022/12/04 11:20:57;;;;;;;49.85;27.85;;;;;;;6.18;100.00;100586.97;5015815;28;20120;-68
2022/12/04 11:23:23;;;;;;;51.38;25.92;;;;;;;6.12;100.00;100590.03;5031984;28;20049;-68
2022/12/04 11:25:52;;;;;;;46.90;24.50;;;;;;;6.09;100.00;100590.59;5031428;28;20084;-68
2022/12/04 11:28:21;;;;;;;41.08;22.40;;;;;;;6.07;100.00;100576.16;5030546;28;20069;-68
2022/12/04 11:30:51;;;;;;;38.90;22.10;;;;;;;6.02;100.00;100588.91;5019263;28;20022;-68
2022/12/04 11:33:23;;;;;;;44.88;24.65;;;;;;;6.21;100.00;100585.59;5022445;28;20029;-70
2022/12/04 11:35:55;;;;;;;47.63;23.65;;;;;;;6.17;100.00;100581.72;5029049;28;20026;-69